KPVD/PVD METAR and TAF weather

Enter ICAO airport designator
Station Type Date Time Source
KPVD METAR 2019/11/15 04:51 UTC NOAA

KPVD 150451Z 29003KT 10SM FEW042 SCT120 BKN140 OVC250 02/M01 A3027 RMK AO2 SLP251 LAST T00171011 400501078


Station Type Date Time Source
KPVD Decoded METAR 2019/11/15 04:51 UTC NOAA

PROVIDENCE GREEN STATE AIRPORT , RI, United States (KPVD) 41-44N 071-26W 16M
Nov 14, 2019 - 11:51 PM EST / 2019.11.15 0451 UTC
Wind: from the WNW (290 degrees) at 3 MPH (3 KT):0
Visibility: 10 mile(s):0
Sky conditions: overcast
Temperature: 35.1 F (1.7 C)
Dew Point: 30.0 F (-1.1 C)
Relative Humidity: 81%
Pressure (altimeter): 30.27 in. Hg (1025 hPa)
ob: KPVD 150451Z 29003KT 10SM FEW042 SCT120 BKN140 OVC250 02/M01 A3027 RMK AO2 SLP251 LAST T00171011 400501078
cycle: 5

Station Type Date Time Source
KPVD TAF 2019/11/15 06:24 UTC NOAA

TAF KPVD 150522Z 1506/1606 27004KT P6SM BKN120
FM150800 25004KT P6SM FEW250
FM151500 24010G17KT P6SM FEW250
FM160000 28007KT P6SM FEW200
FM160300 31007KT P6SM FEW250
FM160500 33010G17KT P6SM SCT250

Example: see airport list